Time;durP1;ratioP1;P1;durP2;ratioP2;P2;SDS_P1;SDS_P2;PMS_P1;PMS_P2;Temp;Humidity;BMP_temperature;BMP_pressure;BME280_temperature;BME280_humidity;BME280_pressure;Samples;Min_cycle;Max_cycle;Signal;HPM_P1;HPM_P2
2023/04/02 00:01:53;;;;;;;;;;;9.10;99.90;;;;;;5108820;28;19916;-66
2023/04/02 00:04:22;;;;;;;;;;;9.10;99.90;;;;;;5109813;28;20306;-66
2023/04/02 00:06:48;;;;;;;;;;;9.10;99.90;;;;;;5109918;28;19918;-68
2023/04/02 00:09:14;;;;;;;;;;;9.10;99.90;;;;;;5110133;28;19911;-66
2023/04/02 00:11:47;;;;;;;;;;;9.10;99.90;;;;;;5108340;28;19908;-66
2023/04/02 00:14:26;;;;;;;;;;;9.10;99.90;;;;;;5110169;28;19912;-66
2023/04/02 00:16:53;;;;;;;;;;;9.00;99.90;;;;;;5110243;28;20006;-66
2023/04/02 00:19:23;;;;;;;;;;;9.00;99.90;;;;;;5109957;28;20337;-66
2023/04/02 00:21:50;;;;;;;;;;;9.00;99.90;;;;;;5109808;28;20380;-66
2023/04/02 00:24:16;;;;;;;;;;;9.00;99.90;;;;;;5109572;28;19916;-66
2023/04/02 00:26:45;;;;;;;;;;;9.00;99.90;;;;;;5109879;28;19912;-66
2023/04/02 00:29:12;;;;;;;;;;;9.00;99.90;;;;;;5109750;28;19912;-66
2023/04/02 00:31:41;;;;;;;;;;;9.00;99.90;;;;;;5109903;28;19912;-66
2023/04/02 00:34:07;;;;;;;;;;;9.00;99.90;;;;;;5109729;28;19923;-66
2023/04/02 00:36:34;;;;;;;;;;;9.00;99.90;;;;;;5108342;28;20440;-66
2023/04/02 00:39:01;;;;;;;;;;;8.90;99.90;;;;;;5107922;28;19911;-66
2023/04/02 00:41:28;;;;;;;;;;;8.90;99.90;;;;;;5107454;28;19916;-66
2023/04/02 00:43:56;;;;;;;;;;;8.90;99.90;;;;;;5102118;28;19911;-66
2023/04/02 00:46:30;;;;;;;;;;;8.90;99.90;;;;;;5108934;28;20379;-67
2023/04/02 00:48:58;;;;;;;;;;;8.90;99.90;;;;;;5109240;28;19919;-66
2023/04/02 00:51:26;;;;;;;;;;;8.90;99.90;;;;;;5109253;28;19935;-66
2023/04/02 00:53:54;;;;;;;;;;;8.90;99.90;;;;;;5108521;28;19913;-66
2023/04/02 00:56:24;;;;;;;;;;;8.90;99.90;;;;;;5109404;28;20651;-66
2023/04/02 00:58:51;;;;;;;;;;;8.90;99.90;;;;;;5109466;28;19956;-66
2023/04/02 01:01:18;;;;;;;;;;;8.80;99.90;;;;;;5107951;28;19976;-65
2023/04/02 01:03:52;;;;;;;;;;;8.90;99.90;;;;;;5109112;28;20053;-66
2023/04/02 01:06:18;;;;;;;;;;;8.80;99.90;;;;;;5109328;28;19924;-66
2023/04/02 01:09:02;;;;;;;;;;;8.80;99.90;;;;;;5109022;28;19960;-66
2023/04/02 01:11:38;;;;;;;;;;;8.80;99.90;;;;;;5109024;28;19923;-66
2023/04/02 01:14:16;;;;;;;;;;;8.80;99.90;;;;;;5108898;28;19919;-66
2023/04/02 01:16:54;;;;;;;;;;;8.80;99.90;;;;;;5108957;27;19912;-66
2023/04/02 01:19:24;;;;;;;;;;;8.80;99.90;;;;;;5108796;28;19923;-66
2023/04/02 01:21:51;;;;;;;;;;;8.80;99.90;;;;;;5109075;28;20273;-66
2023/04/02 01:24:17;;;;;;;;;;;8.80;99.90;;;;;;5108544;28;19915;-66
2023/04/02 01:26:46;;;;;;;;;;;8.70;99.90;;;;;;5109289;28;19951;-66
2023/04/02 01:29:14;;;;;;;;;;;8.80;99.90;;;;;;5108855;28;20006;-65
2023/04/02 01:31:41;;;;;;;;;;;8.70;99.90;;;;;;5108758;28;19908;-66
2023/04/02 01:34:08;;;;;;;;;;;8.80;99.90;;;;;;5090825;28;19912;-66
2023/04/02 01:36:50;;;;;;;;;;;8.70;99.90;;;;;;5086914;28;20565;-66
2023/04/02 01:39:45;;;;;;;;;;;8.70;99.90;;;;;;5088586;28;19916;-66
2023/04/02 01:42:10;;;;;;;;;;;8.70;99.90;;;;;;5036605;28;19931;-66
2023/04/02 01:44:49;;;;;;;;;;;8.70;99.90;;;;;;5106873;28;20352;-66
2023/04/02 01:47:17;;;;;;;;;;;8.70;99.90;;;;;;5106813;28;19915;-66
2023/04/02 01:49:43;;;;;;;;;;;8.70;99.90;;;;;;5108521;28;19912;-66
2023/04/02 01:52:12;;;;;;;;;;;8.70;99.90;;;;;;5107901;28;19919;-65
2023/04/02 01:54:39;;;;;;;;;;;8.60;99.90;;;;;;5107460;28;20647;-66
2023/04/02 01:57:06;;;;;;;;;;;8.60;99.90;;;;;;5107973;28;19922;-65
2023/04/02 01:59:32;;;;;;;;;;;8.60;99.90;;;;;;5108311;28;20503;-66
2023/04/02 02:02:10;;;;;;;;;;;8.60;99.90;;;;;;5108067;28;19916;-66
2023/04/02 02:04:36;;;;;;;;;;;8.60;99.90;;;;;;5107911;28;19922;-66
2023/04/02 02:07:02;;;;;;;;;;;8.60;99.90;;;;;;5108267;28;19912;-66
2023/04/02 02:09:29;;;;;;;;;;;8.60;99.90;;;;;;5108237;28;19916;-66
2023/04/02 02:11:58;;;;;;;;;;;8.60;99.90;;;;;;5108018;28;19918;-66
2023/04/02 02:14:25;;;;;;;;;;;8.50;99.90;;;;;;5108133;28;19912;-66
2023/04/02 02:16:55;;;;;;;;;;;8.50;99.90;;;;;;5107981;28;19972;-66
2023/04/02 02:19:30;;;;;;;;;;;8.50;99.90;;;;;;5108161;28;20399;-66
2023/04/02 02:21:59;;;;;;;;;;;8.50;99.90;;;;;;5107813;28;19950;-66
2023/04/02 02:24:30;;;;;;;;;;;8.50;99.90;;;;;;5107886;28;19919;-66
2023/04/02 02:27:16;;;;;;;;;;;8.50;99.90;;;;;;5108270;28;19951;-66
2023/04/02 02:29:41;;;;;;;;;;;8.50;99.90;;;;;;5107834;28;19955;-66
2023/04/02 02:32:09;;;;;;;;;;;8.50;99.90;;;;;;5107800;28;19954;-66
2023/04/02 02:34:47;;;;;;;;;;;8.50;99.90;;;;;;5108016;28;19976;-66
2023/04/02 02:37:23;;;;;;;;;;;8.50;99.90;;;;;;5108509;28;20010;-66
2023/04/02 02:39:53;;;;;;;;;;;8.40;99.90;;;;;;5108115;28;19998;-66
2023/04/02 02:42:33;;;;;;;;;;;8.40;99.90;;;;;;5107403;28;20491;-67
2023/04/02 02:45:00;;;;;;;;;;;8.50;99.90;;;;;;5100705;28;20014;-66
2023/04/02 02:47:27;;;;;;;;;;;8.40;99.90;;;;;;5107587;28;19911;-66
2023/04/02 02:49:53;;;;;;;;;;;8.40;99.90;;;;;;5107916;28;19912;-66
2023/04/02 02:52:21;;;;;;;;;;;8.40;99.90;;;;;;5107275;28;19914;-66
2023/04/02 02:55:13;;;;;;;;;;;8.40;99.90;;;;;;5108100;28;19919;-66
2023/04/02 02:58:06;;;;;;;;;;;8.40;99.90;;;;;;5105505;28;19918;-65
2023/04/02 03:00:34;;;;;;;;;;;8.40;99.90;;;;;;5106077;28;19923;-66
2023/04/02 03:03:02;;;;;;;;;;;8.40;99.90;;;;;;5107356;28;19981;-66
2023/04/02 03:05:28;;;;;;;;;;;8.40;99.90;;;;;;5109414;28;19990;-66
2023/04/02 03:07:55;;;;;;;;;;;8.40;99.90;;;;;;5110206;28;19912;-66
2023/04/02 03:10:33;;;;;;;;;;;8.40;99.90;;;;;;5111773;28;19919;-66
2023/04/02 03:12:58;;;;;;;;;;;8.30;99.90;;;;;;5111271;28;19915;-66
2023/04/02 03:15:42;;;;;;;;;;;8.30;99.90;;;;;;5111423;28;19915;-66
2023/04/02 03:18:15;;;;;;;;;;;8.30;99.90;;;;;;5111133;28;20291;-66
2023/04/02 03:20:47;;;;;;;;;;;8.30;99.90;;;;;;5111226;28;20006;-66
2023/04/02 03:23:23;;;;;;;;;;;8.30;99.90;;;;;;5110558;28;20277;-67
2023/04/02 03:25:57;;;;;;;;;;;8.30;99.90;;;;;;5111385;28;19984;-66
2023/04/02 03:28:26;;;;;;;;;;;8.30;99.90;;;;;;5110901;28;20293;-66
2023/04/02 03:31:01;;;;;;;;;;;8.30;99.90;;;;;;5111323;28;19951;-65
2023/04/02 03:33:28;;;;;;;;;;;8.30;99.90;;;;;;5110566;28;19912;-66
2023/04/02 03:35:57;;;;;;;;;;;8.30;99.90;;;;;;5109621;28;19995;-66
2023/04/02 03:38:25;;;;;;;;;;;8.20;99.90;;;;;;5110811;28;19911;-66
2023/04/02 03:41:02;;;;;;;;;;;8.30;99.90;;;;;;5110736;27;20380;-66
2023/04/02 03:43:32;;;;;;;;;;;8.20;99.90;;;;;;5101366;28;19916;-66
2023/04/02 03:46:02;;;;;;;;;;;8.20;99.90;;;;;;5110486;28;19912;-65
2023/04/02 03:48:37;;;;;;;;;;;8.20;99.90;;;;;;5110524;28;19916;-65
2023/04/02 03:51:05;;;;;;;;;;;8.20;99.90;;;;;;5110386;28;20003;-66
2023/04/02 03:53:31;;;;;;;;;;;8.20;99.90;;;;;;5110216;28;19911;-66
2023/04/02 03:55:58;;;;;;;;;;;8.20;99.90;;;;;;5110702;28;19919;-66
2023/04/02 03:58:26;;;;;;;;;;;8.20;99.90;;;;;;5110357;28;19942;-66
2023/04/02 04:00:54;;;;;;;;;;;8.20;99.90;;;;;;5110467;28;19919;-65
2023/04/02 04:03:24;;;;;;;;;;;8.20;99.90;;;;;;5109585;28;19946;-65
2023/04/02 04:05:56;;;;;;;;;;;8.10;99.90;;;;;;5110135;28;19953;-66
2023/04/02 04:08:25;;;;;;;;;;;8.10;99.90;;;;;;5108769;28;19911;-65
2023/04/02 04:10:56;;;;;;;;;;;8.10;99.90;;;;;;5110383;28;19919;-66
2023/04/02 04:13:27;;;;;;;;;;;8.10;99.90;;;;;;5108580;28;20337;-65
2023/04/02 04:15:56;;;;;;;;;;;8.10;99.90;;;;;;5108599;28;19955;-65
2023/04/02 04:18:33;;;;;;;;;;;8.10;99.90;;;;;;5108415;28;19912;-66
2023/04/02 04:21:10;;;;;;;;;;;8.10;99.90;;;;;;5108940;28;20394;-66
2023/04/02 04:23:37;;;;;;;;;;;8.10;99.90;;;;;;5109571;28;20528;-66
2023/04/02 04:26:08;;;;;;;;;;;8.10;99.90;;;;;;5108695;28;19955;-66
2023/04/02 04:28:37;;;;;;;;;;;8.10;99.90;;;;;;5110033;28;19919;-66
2023/04/02 04:31:16;;;;;;;;;;;8.00;99.90;;;;;;5108975;28;19919;-66
2023/04/02 04:33:44;;;;;;;;;;;8.00;99.90;;;;;;5109833;28;19916;-66
2023/04/02 04:36:30;;;;;;;;;;;8.00;99.90;;;;;;5110152;28;19918;-65
2023/04/02 04:39:04;;;;;;;;;;;8.00;99.90;;;;;;5108982;28;20010;-65
2023/04/02 04:41:35;;;;;;;;;;;8.00;99.90;;;;;;5108157;28;20337;-66
2023/04/02 04:44:13;;;;;;;;;;;8.00;99.90;;;;;;5101277;28;19965;-66
2023/04/02 04:46:43;;;;;;;;;;;8.00;99.90;;;;;;5109791;28;20304;-66
2023/04/02 04:49:18;;;;;;;;;;;8.00;99.90;;;;;;5108460;28;19915;-66
2023/04/02 04:51:46;;;;;;;;;;;8.00;99.90;;;;;;5109095;28;19912;-66
2023/04/02 04:54:13;;;;;;;;;;;8.00;99.90;;;;;;5109263;28;19911;-66
2023/04/02 04:56:38;;;;;;;;;;;7.90;99.90;;;;;;5107903;28;19919;-66
2023/04/02 04:59:11;;;;;;;;;;;7.90;99.90;;;;;;5109531;28;19912;-65
2023/04/02 05:01:37;;;;;;;;;;;7.90;99.90;;;;;;5109548;28;20358;-67
2023/04/02 05:04:05;;;;;;;;;;;8.00;99.90;;;;;;5109041;28;19915;-65
2023/04/02 05:06:39;;;;;;;;;;;7.90;99.90;;;;;;5109631;28;19912;-66
2023/04/02 05:09:13;;;;;;;;;;;7.90;99.90;;;;;;5109006;28;19912;-65
2023/04/02 05:11:43;;;;;;;;;;;7.90;99.90;;;;;;5109231;28;19964;-65
2023/04/02 05:14:19;;;;;;;;;;;7.90;99.90;;;;;;5108816;28;19915;-66
2023/04/02 05:16:50;;;;;;;;;;;7.90;99.90;;;;;;5108003;28;19908;-66
2023/04/02 05:19:18;;;;;;;;;;;7.90;99.90;;;;;;5108968;28;19918;-66
2023/04/02 05:21:49;;;;;;;;;;;7.80;99.90;;;;;;5107798;28;19918;-66
2023/04/02 05:24:47;;;;;;;;;;;7.80;99.90;;;;;;5108742;28;19916;-66
2023/04/02 05:27:25;;;;;;;;;;;7.80;99.90;;;;;;5085065;28;19937;-66
2023/04/02 05:30:06;;;;;;;;;;;7.80;99.90;;;;;;5108801;28;19920;-65
2023/04/02 05:32:33;;;;;;;;;;;7.80;99.90;;;;;;5108258;28;19919;-65
2023/04/02 05:34:59;;;;;;;;;;;7.80;99.90;;;;;;5108941;28;19908;-65
2023/04/02 05:37:27;;;;;;;;;;;7.80;99.90;;;;;;5108380;28;20003;-65
2023/04/02 05:39:55;;;;;;;;;;;7.80;99.90;;;;;;5108895;28;19938;-65
2023/04/02 05:42:26;;;;;;;;;;;7.80;99.90;;;;;;5107533;28;19916;-66
2023/04/02 05:45:00;;;;;;;;;;;7.80;99.90;;;;;;5107692;28;19969;-66
2023/04/02 05:47:27;;;;;;;;;;;7.80;99.90;;;;;;5102814;28;19981;-65
2023/04/02 05:50:11;;;;;;;;;;;7.70;99.90;;;;;;5108359;28;19911;-66
2023/04/02 05:52:46;;;;;;;;;;;7.80;99.90;;;;;;5100277;28;20002;-66
2023/04/02 05:55:12;;;;;;;;;;;7.70;99.90;;;;;;5106917;28;20011;-65
2023/04/02 05:57:40;;;;;;;;;;;7.70;99.90;;;;;;5106722;28;20054;-66
2023/04/02 06:00:09;;;;;;;;;;;7.70;99.90;;;;;;5108875;28;20721;-66
2023/04/02 06:02:38;;;;;;;;;;;7.70;99.90;;;;;;5108100;28;19914;-65
2023/04/02 06:05:05;;;;;;;;;;;7.70;99.90;;;;;;5108587;28;19915;-65
2023/04/02 06:07:35;;;;;;;;;;;7.70;99.90;;;;;;5107992;28;19965;-65
2023/04/02 06:10:10;;;;;;;;;;;7.70;99.90;;;;;;5108547;28;19915;-65
2023/04/02 06:12:44;;;;;;;;;;;7.70;99.90;;;;;;5107887;28;20284;-65
2023/04/02 06:15:13;;;;;;;;;;;7.70;99.90;;;;;;5108604;28;19912;-65
2023/04/02 06:17:44;;;;;;;;;;;7.70;99.90;;;;;;5108381;28;19969;-65
2023/04/02 06:20:13;;;;;;;;;;;7.70;99.90;;;;;;5108496;28;20296;-66
2023/04/02 06:22:40;;;;;;;;;;;7.60;99.90;;;;;;5106517;28;20350;-65
2023/04/02 06:25:16;;;;;;;;;;;7.60;99.90;;;;;;5108398;28;19919;-65
2023/04/02 06:27:43;;;;;;;;;;;7.60;99.90;;;;;;5108523;28;19918;-65
2023/04/02 06:30:15;;;;;;;;;;;7.60;99.90;;;;;;5108472;28;19915;-65
2023/04/02 06:32:41;;;;;;;;;;;7.60;99.90;;;;;;5107873;28;19919;-65
2023/04/02 06:35:11;;;;;;;;;;;7.60;99.90;;;;;;5108280;28;19912;-66
2023/04/02 06:37:39;;;;;;;;;;;7.60;99.90;;;;;;5107920;28;19911;-65
2023/04/02 06:40:13;;;;;;;;;;;7.60;99.90;;;;;;5109296;28;19921;-66
2023/04/02 06:42:39;;;;;;;;;;;7.60;99.90;;;;;;5103190;28;19961;-66
2023/04/02 06:45:05;;;;;;;;;;;7.60;99.90;;;;;;5111368;28;19922;-65
2023/04/02 06:47:45;;;;;;;;;;;7.60;99.90;;;;;;5110158;28;19912;-65
2023/04/02 06:50:11;;;;;;;;;;;7.60;99.90;;;;;;5111811;28;20447;-65
2023/04/02 06:52:45;;;;;;;;;;;7.60;99.90;;;;;;5109959;28;19912;-65
2023/04/02 06:55:23;;;;;;;;;;;7.50;99.90;;;;;;5109528;28;19912;-65
2023/04/02 06:57:49;;;;;;;;;;;7.60;99.90;;;;;;5108969;28;19916;-66
2023/04/02 07:00:33;;;;;;;;;;;7.50;99.90;;;;;;5111362;28;20379;-65
2023/04/02 07:03:00;;;;;;;;;;;7.50;99.90;;;;;;5109832;28;19908;-65
2023/04/02 07:05:26;;;;;;;;;;;7.50;99.90;;;;;;5110958;28;19923;-66
2023/04/02 07:07:51;;;;;;;;;;;7.50;99.90;;;;;;5111181;28;20428;-65
2023/04/02 07:10:19;;;;;;;;;;;7.60;99.90;;;;;;5111511;28;19973;-65
2023/04/02 07:12:45;;;;;;;;;;;7.50;99.90;;;;;;5108950;28;20369;-65
2023/04/02 07:15:14;;;;;;;;;;;7.50;99.90;;;;;;5091469;28;19939;-65
2023/04/02 07:17:39;;;;;;;;;;;7.50;99.90;;;;;;5090732;28;20387;-65
2023/04/02 07:20:05;;;;;;;;;;;7.50;99.90;;;;;;5090923;28;19967;-65
2023/04/02 07:22:31;;;;;;;;;;;7.50;99.90;;;;;;5090181;28;19912;-66
2023/04/02 07:24:57;;;;;;;;;;;7.50;99.90;;;;;;5090559;28;20042;-65
2023/04/02 07:27:23;;;;;;;;;;;7.50;99.90;;;;;;5090786;28;20003;-65
2023/04/02 07:29:48;;;;;;;;;;;7.50;99.90;;;;;;5096233;28;20389;-65
2023/04/02 07:32:14;;;;;;;;;;;7.50;99.90;;;;;;5110577;28;19916;-66
2023/04/02 07:34:40;;;;;;;;;;;7.50;99.90;;;;;;5110778;28;19915;-65
2023/04/02 07:37:06;;;;;;;;;;;7.50;99.90;;;;;;5110621;28;19923;-66
2023/04/02 07:39:31;;;;;;;;;;;7.50;99.90;;;;;;5109309;28;20288;-65
2023/04/02 07:41:58;;;;;;;;;;;7.50;99.90;;;;;;5110009;28;19989;-66
2023/04/02 07:44:24;;;;;;;;;;;7.50;99.90;;;;;;5106435;28;19994;-65
2023/04/02 07:46:49;;;;;;;;;;;7.50;99.90;;;;;;5110286;28;19998;-65
2023/04/02 07:49:15;;;;;;;;;;;7.50;99.90;;;;;;5110514;28;20056;-65
2023/04/02 07:51:41;;;;;;;;;;;7.50;99.90;;;;;;5110211;28;20007;-65
2023/04/02 07:54:09;;;;;;;;;;;7.50;99.90;;;;;;5108615;28;20542;-66
2023/04/02 07:56:35;;;;;;;;;;;7.50;99.90;;;;;;5110167;28;19912;-66
2023/04/02 07:59:01;;;;;;;;;;;7.60;99.90;;;;;;5110249;27;20292;-66
2023/04/02 08:01:27;;;;;;;;;;;7.50;99.90;;;;;;5110319;28;19918;-66
2023/04/02 08:03:53;;;;;;;;;;;7.50;99.90;;;;;;5109239;28;19915;-66
2023/04/02 08:06:19;;;;;;;;;;;7.50;99.90;;;;;;5110127;28;19939;-66
2023/04/02 08:08:45;;;;;;;;;;;7.50;99.90;;;;;;5107122;28;19960;-66
2023/04/02 08:11:10;;;;;;;;;;;7.50;99.90;;;;;;5110142;28;20314;-66
2023/04/02 08:13:36;;;;;;;;;;;7.50;99.90;;;;;;5109830;28;19911;-66
2023/04/02 08:16:02;;;;;;;;;;;7.50;99.90;;;;;;5110477;28;20623;-66
2023/04/02 08:18:28;;;;;;;;;;;7.50;99.90;;;;;;5110150;28;19916;-66
2023/04/02 08:20:54;;;;;;;;;;;7.50;99.90;;;;;;5108557;28;19915;-66
2023/04/02 08:23:20;;;;;;;;;;;7.50;99.90;;;;;;5109538;28;19919;-66
2023/04/02 08:25:46;;;;;;;;;;;7.50;99.90;;;;;;5108795;28;19918;-66
2023/04/02 08:28:11;;;;;;;;;;;7.50;99.90;;;;;;5110242;28;20485;-66
2023/04/02 08:30:37;;;;;;;;;;;7.50;99.90;;;;;;5110421;28;19988;-66
2023/04/02 08:33:02;;;;;;;;;;;7.50;99.90;;;;;;5109576;28;19911;-66
2023/04/02 08:35:28;;;;;;;;;;;7.50;99.90;;;;;;5108899;28;20313;-66
2023/04/02 08:37:54;;;;;;;;;;;7.50;99.90;;;;;;5109663;28;20006;-66
2023/04/02 08:40:32;;;;;;;;;;;7.50;99.90;;;;;;5110061;28;19912;-66
2023/04/02 08:43:04;;;;;;;;;;;7.50;99.90;;;;;;5101137;28;19911;-66
2023/04/02 08:45:48;;;;;;;;;;;7.50;99.90;;;;;;5109332;28;19913;-66
2023/04/02 08:48:14;;;;;;;;;;;7.50;99.90;;;;;;5107966;28;19915;-66
2023/04/02 08:50:41;;;;;;;;;;;7.60;99.90;;;;;;5108786;28;19922;-66
2023/04/02 08:53:12;;;;;;;;;;;7.60;99.90;;;;;;5108303;28;19912;-66
2023/04/02 08:55:46;;;;;;;;;;;7.60;99.90;;;;;;5109641;28;20505;-66
2023/04/02 08:58:19;;;;;;;;;;;7.60;99.90;;;;;;5108761;28;19950;-66
2023/04/02 09:00:46;;;;;;;;;;;7.60;99.90;;;;;;5108871;28;19939;-66
2023/04/02 09:03:16;;;;;;;;;;;7.70;99.90;;;;;;5107915;28;19908;-66
2023/04/02 09:05:43;;;;;;;;;;;7.70;99.90;;;;;;5108740;28;19915;-66
2023/04/02 09:08:15;;;;;;;;;;;7.70;99.90;;;;;;5106830;28;19915;-66
2023/04/02 09:10:43;;;;;;;;;;;7.70;99.90;;;;;;5107465;28;20089;-66
2023/04/02 09:13:16;;;;;;;;;;;7.70;99.90;;;;;;5102039;28;19954;-66
2023/04/02 09:15:42;;;;;;;;;;;7.70;99.90;;;;;;5088374;28;19918;-66
2023/04/02 09:18:15;;;;;;;;;;;7.80;99.90;;;;;;5099522;28;20038;-66
2023/04/02 09:20:41;;;;;;;;;;;7.80;99.90;;;;;;5106565;28;20719;-66
2023/04/02 09:23:15;;;;;;;;;;;7.80;99.90;;;;;;5106733;28;19950;-66
2023/04/02 09:25:45;;;;;;;;;;;7.80;99.90;;;;;;5104375;28;19911;-66
2023/04/02 09:28:11;;;;;;;;;;;7.80;99.90;;;;;;5106034;28;20332;-66
2023/04/02 09:30:58;;;;;;;;;;;7.80;99.90;;;;;;5106689;28;19919;-67
2023/04/02 09:33:44;;;;;;;;;;;7.80;99.90;;;;;;5105632;28;19960;-66
2023/04/02 09:36:39;;;;;;;;;;;7.80;99.90;;;;;;5104742;28;19922;-66
2023/04/02 09:39:15;;;;;;;;;;;7.90;99.90;;;;;;5102373;28;19912;-66
2023/04/02 09:41:40;;;;;;;;;;;7.80;99.90;;;;;;5107160;28;19923;-66
2023/04/02 09:44:18;;;;;;;;;;;7.90;99.90;;;;;;5105645;28;19916;-66
2023/04/02 09:47:02;;;;;;;;;;;7.90;99.90;;;;;;5108517;28;19908;-66
2023/04/02 09:49:29;;;;;;;;;;;7.90;99.90;;;;;;5105830;28;19951;-66
2023/04/02 09:52:15;;;;;;;;;;;7.90;99.90;;;;;;5108267;28;19941;-66
2023/04/02 09:54:41;;;;;;;;;;;7.90;99.90;;;;;;5123267;27;19911;-66
2023/04/02 09:57:23;;;;;;;;;;;7.90;99.90;;;;;;5106635;28;19934;-66
2023/04/02 10:00:12;;;;;;;;;;;7.90;99.90;;;;;;5105695;28;19915;-66
2023/04/02 10:02:37;;;;;;;;;;;8.00;99.90;;;;;;5113858;27;19912;-66
2023/04/02 10:05:04;;;;;;;;;;;8.00;99.90;;;;;;5107945;28;19927;-66
2023/04/02 10:07:36;;;;;;;;;;;8.00;99.90;;;;;;5108192;28;19912;-66
2023/04/02 10:10:22;;;;;;;;;;;8.00;99.90;;;;;;5107197;28;19911;-66
2023/04/02 10:12:49;;;;;;;;;;;8.00;99.90;;;;;;5107488;28;19984;-66
2023/04/02 10:15:18;;;;;;;;;;;8.00;99.90;;;;;;5110044;28;20367;-66
2023/04/02 10:17:47;;;;;;;;;;;8.00;99.90;;;;;;5112518;28;19912;-66
2023/04/02 10:20:22;;;;;;;;;;;8.00;99.90;;;;;;5112055;28;20392;-66
2023/04/02 10:22:47;;;;;;;;;;;8.10;99.90;;;;;;5111171;28;19937;-66
2023/04/02 10:25:17;;;;;;;;;;;8.10;99.90;;;;;;5111894;28;19920;-66
2023/04/02 10:28:02;;;;;;;;;;;8.10;99.90;;;;;;5111822;28;19951;-66
2023/04/02 10:30:37;;;;;;;;;;;8.10;99.90;;;;;;5111829;28;20411;-66
2023/04/02 10:33:13;;;;;;;;;;;8.10;99.90;;;;;;5110616;28;19999;-66
2023/04/02 10:35:57;;;;;;;;;;;8.10;99.90;;;;;;5111560;28;19954;-66
2023/04/02 10:38:26;;;;;;;;;;;8.10;99.90;;;;;;5111547;28;20383;-66
2023/04/02 10:40:51;;;;;;;;;;;8.10;99.90;;;;;;5111346;28;19912;-66
2023/04/02 10:43:17;;;;;;;;;;;8.20;99.90;;;;;;5109227;28;19912;-66
2023/04/02 10:45:53;;;;;;;;;;;8.20;99.90;;;;;;5111110;28;20696;-66
2023/04/02 10:48:24;;;;;;;;;;;8.20;99.90;;;;;;5111388;28;20601;-66
2023/04/02 10:50:59;;;;;;;;;;;8.20;99.90;;;;;;5107045;28;20334;-67
2023/04/02 10:53:30;;;;;;;;;;;8.20;99.90;;;;;;5108914;27;20044;-66
2023/04/02 10:56:02;;;;;;;;;;;8.20;99.90;;;;;;5108452;28;20284;-66
2023/04/02 10:58:30;;;;;;;;;;;8.30;99.90;;;;;;5110024;28;19999;-66
2023/04/02 11:00:58;;;;;;;;;;;8.30;99.90;;;;;;5110146;28;20337;-66
2023/04/02 11:03:40;;;;;;;;;;;8.30;99.90;;;;;;5109753;27;19930;-66
2023/04/02 11:06:19;;;;;;;;;;;8.30;99.90;;;;;;5108817;28;19915;-66
2023/04/02 11:08:46;;;;;;;;;;;8.30;99.90;;;;;;5104716;27;19915;-66
2023/04/02 11:11:22;;;;;;;;;;;8.40;99.90;;;;;;5110107;28;19912;-66
2023/04/02 11:14:02;;;;;;;;;;;8.40;99.90;;;;;;5106960;28;19922;-66
2023/04/02 11:16:27;;;;;;;;;;;8.40;99.90;;;;;;5108044;28;20456;-66
2023/04/02 11:19:12;;;;;;;;;;;8.40;99.90;;;;;;5109425;28;19922;-66
2023/04/02 11:21:56;;;;;;;;;;;8.50;99.90;;;;;;5108596;28;19919;-66
2023/04/02 11:24:21;;;;;;;;;;;8.50;99.90;;;;;;5109085;28;20388;-66
2023/04/02 11:26:47;;;;;;;;;;;8.60;99.90;;;;;;5109123;28;19912;-66
2023/04/02 11:29:15;;;;;;;;;;;8.60;99.80;;;;;;5109364;28;20072;-66
2023/04/02 11:31:41;;;;;;;;;;;8.60;99.50;;;;;;5109041;28;20608;-66
2023/04/02 11:34:11;;;;;;;;;;;8.70;99.60;;;;;;5107792;28;19919;-66
2023/04/02 11:36:51;;;;;;;;;;;8.70;99.50;;;;;;5109149;28;20388;-66
2023/04/02 11:39:36;;;;;;;;;;;8.80;99.50;;;;;;5106433;28;20606;-66
2023/04/02 11:42:20;;;;;;;;;;;8.80;99.30;;;;;;5108106;28;19937;-66
2023/04/02 11:44:45;;;;;;;;;;;8.80;99.30;;;;;;5109208;28;19916;-66
2023/04/02 11:47:20;;;;;;;;;;;8.80;99.30;;;;;;5109295;28;19912;-66
2023/04/02 11:50:06;;;;;;;;;;;8.90;99.30;;;;;;5109131;28;19985;-67
2023/04/02 11:52:34;;;;;;;;;;;8.90;99.20;;;;;;5106434;28;20317;-66
2023/04/02 11:55:01;;;;;;;;;;;8.90;99.10;;;;;;5109597;28;19920;-67
2023/04/02 11:57:42;;;;;;;;;;;8.90;99.20;;;;;;5109457;28;20317;-66
2023/04/02 12:00:17;;;;;;;;;;;8.90;99.20;;;;;;5109970;28;19923;-66
2023/04/02 12:02:48;;;;;;;;;;;8.90;99.30;;;;;;5107904;28;19911;-66
2023/04/02 12:05:24;;;;;;;;;;;8.90;99.30;;;;;;5109385;28;19912;-66
2023/04/02 12:07:54;;;;;;;;;;;8.90;99.40;;;;;;5108888;28;20380;-66
2023/04/02 12:10:21;;;;;;;;;;;8.90;99.40;;;;;;5109758;28;19912;-66
2023/04/02 12:12:47;;;;;;;;;;;8.90;99.30;;;;;;5105624;28;19920;-67
2023/04/02 12:15:32;;;;;;;;;;;8.90;99.40;;;;;;5109726;28;20425;-66
2023/04/02 12:18:16;;;;;;;;;;;8.90;99.40;;;;;;5108181;28;19938;-66
2023/04/02 12:20:46;;;;;;;;;;;8.90;99.30;;;;;;5108071;28;20043;-66
2023/04/02 12:23:20;;;;;;;;;;;8.90;99.40;;;;;;5097881;28;20416;-66
2023/04/02 12:25:53;;;;;;;;;;;8.90;99.40;;;;;;5088948;28;19916;-66
2023/04/02 12:28:21;;;;;;;;;;;8.90;99.50;;;;;;5088845;28;19954;-66
2023/04/02 12:30:47;;;;;;;;;;;8.90;99.30;;;;;;5088947;28;19912;-65
2023/04/02 12:33:35;;;;;;;;;;;8.90;99.40;;;;;;5087594;28;19919;-66
2023/04/02 12:36:03;;;;;;;;;;;8.90;99.40;;;;;;5088795;28;20526;-66
2023/04/02 12:38:30;;;;;;;;;;;9.00;99.40;;;;;;5087469;28;19912;-66
2023/04/02 12:40:55;;;;;;;;;;;8.90;99.20;;;;;;5100518;28;20504;-65
2023/04/02 12:43:25;;;;;;;;;;;9.00;99.20;;;;;;5108340;28;19946;-66
2023/04/02 12:45:51;;;;;;;;;;;9.00;99.20;;;;;;5109030;28;19919;-66
2023/04/02 12:48:17;;;;;;;;;;;9.00;99.20;;;;;;5108778;28;19945;-66
2023/04/02 12:50:43;;;;;;;;;;;9.00;99.30;;;;;;5108820;28;20680;-66
2023/04/02 12:53:18;;;;;;;;;;;9.00;99.30;;;;;;5108241;28;19916;-66
2023/04/02 12:55:46;;;;;;;;;;;9.00;99.40;;;;;;5108686;28;20420;-66
2023/04/02 12:58:38;;;;;;;;;;;9.00;99.30;;;;;;5108202;28;19916;-66
2023/04/02 13:01:21;;;;;;;;;;;9.00;99.30;;;;;;5102391;28;19916;-66
2023/04/02 13:03:59;;;;;;;;;;;9.00;99.30;;;;;;5108088;28;19912;-66
2023/04/02 13:06:25;;;;;;;;;;;9.00;99.40;;;;;;5109766;28;19987;-66
2023/04/02 13:08:52;;;;;;;;;;;9.00;99.30;;;;;;5108224;28;19947;-66
2023/04/02 13:11:18;;;;;;;;;;;9.00;99.30;;;;;;5108574;28;19915;-66
2023/04/02 13:13:44;;;;;;;;;;;9.00;99.10;;;;;;5106699;27;19912;-66
2023/04/02 13:16:16;;;;;;;;;;;9.00;99.10;;;;;;5108357;28;19912;-66
2023/04/02 13:18:43;;;;;;;;;;;9.00;99.20;;;;;;5104951;28;19911;-66
2023/04/02 13:21:15;;;;;;;;;;;9.00;99.10;;;;;;5108019;28;19916;-66
2023/04/02 13:23:41;;;;;;;;;;;9.10;99.20;;;;;;5108134;28;19919;-66
2023/04/02 13:26:10;;;;;;;;;;;9.10;99.00;;;;;;5107237;28;20471;-66
2023/04/02 13:28:36;;;;;;;;;;;9.10;98.90;;;;;;5108398;28;19934;-66
2023/04/02 13:31:01;;;;;;;;;;;9.20;98.90;;;;;;5107747;28;20486;-66
2023/04/02 13:33:27;;;;;;;;;;;9.20;98.70;;;;;;5108416;28;19923;-66
2023/04/02 13:35:53;;;;;;;;;;;9.20;98.60;;;;;;5109107;28;19908;-66
2023/04/02 13:38:18;;;;;;;;;;;9.30;98.40;;;;;;5108650;28;19908;-66
2023/04/02 13:40:44;;;;;;;;;;;9.30;98.40;;;;;;5108931;28;19994;-66
2023/04/02 13:43:15;;;;;;;;;;;9.30;98.20;;;;;;5106184;28;19927;-66
2023/04/02 13:45:41;;;;;;;;;;;9.40;98.30;;;;;;5106986;28;19915;-66
2023/04/02 13:48:12;;;;;;;;;;;9.40;98.00;;;;;;5108703;28;19912;-66
2023/04/02 13:50:37;;;;;;;;;;;9.50;98.00;;;;;;5108564;28;19951;-66
2023/04/02 13:53:05;;;;;;;;;;;9.50;97.80;;;;;;5106905;28;19943;-66
2023/04/02 13:55:34;;;;;;;;;;;9.60;97.90;;;;;;5108628;28;19912;-66
2023/04/02 13:57:59;;;;;;;;;;;9.70;97.90;;;;;;5108524;28;19914;-66
2023/04/02 14:00:25;;;;;;;;;;;9.70;97.70;;;;;;5108421;28;20002;-66
2023/04/02 14:03:06;;;;;;;;;;;9.70;97.80;;;;;;5108175;28;20439;-66
2023/04/02 14:05:40;;;;;;;;;;;9.80;97.70;;;;;;5108262;28;19916;-66
2023/04/02 14:08:07;;;;;;;;;;;9.80;97.70;;;;;;5102814;28;20254;-66
2023/04/02 14:10:53;;;;;;;;;;;9.90;97.70;;;;;;5107839;28;20018;-66
2023/04/02 14:13:21;;;;;;;;;;;9.90;97.60;;;;;;5107697;28;19916;-66
2023/04/02 14:15:58;;;;;;;;;;;9.90;97.50;;;;;;5108811;28;19919;-66
2023/04/02 14:18:31;;;;;;;;;;;10.00;97.60;;;;;;5108414;28;19915;-67
2023/04/02 14:21:00;;;;;;;;;;;10.10;97.70;;;;;;5105952;28;20257;-66
2023/04/02 14:23:40;;;;;;;;;;;10.10;97.50;;;;;;5106503;28;19907;-66
2023/04/02 14:26:21;;;;;;;;;;;10.20;97.30;;;;;;5105016;28;19912;-66
2023/04/02 14:28:50;;;;;;;;;;;10.20;97.50;;;;;;5104272;28;19912;-66
2023/04/02 14:31:23;;;;;;;;;;;10.30;97.40;;;;;;5107294;28;19908;-66
2023/04/02 14:34:05;;;;;;;;;;;10.30;97.40;;;;;;5104997;28;20420;-66
2023/04/02 14:36:39;;;;;;;;;;;10.30;97.20;;;;;;5105515;28;19932;-66
2023/04/02 14:39:05;;;;;;;;;;;10.30;97.20;;;;;;5104599;28;20350;-66
2023/04/02 14:41:35;;;;;;;;;;;10.40;97.10;;;;;;5105122;28;19911;-66
2023/04/02 14:44:06;;;;;;;;;;;10.40;97.10;;;;;;5104552;28;19958;-66
2023/04/02 14:46:32;;;;;;;;;;;10.40;96.90;;;;;;5106872;28;19912;-66
2023/04/02 14:48:58;;;;;;;;;;;10.40;97.10;;;;;;5106819;28;19926;-66
2023/04/02 14:51:29;;;;;;;;;;;10.50;97.10;;;;;;5107241;28;19908;-66